Time;durP1;ratioP1;P1;durP2;ratioP2;P2;SDS_P1;SDS_P2;PMS_P1;PMS_P2;Temp;Humidity;BMP_temperature;BMP_pressure;BME280_temperature;BME280_humidity;BME280_pressure;Samples;Min_cycle;Max_cycle;Signal;HPM_P1;HPM_P2
2022/04/18 00:00:07;;;;;;;3.63;3.33;;;;;;;8.53;56.08;99042.88;4977017;28;102722;-61
2022/04/18 00:02:36;;;;;;;4.30;3.85;;;;;;;8.39;56.92;99034.94;4969800;28;104009;-61
2022/04/18 00:05:05;;;;;;;5.00;4.10;;;;;;;7.65;59.97;99036.53;4990905;28;103021;-61
2022/04/18 00:07:33;;;;;;;4.55;4.15;;;;;;;7.20;62.21;99035.47;4989585;28;102830;-61
2022/04/18 00:10:01;;;;;;;4.75;4.05;;;;;;;6.78;62.10;99042.97;4987548;28;102608;-59
2022/04/18 00:12:30;;;;;;;4.43;3.88;;;;;;;6.97;62.42;99038.44;4985326;28;103211;-62
2022/04/18 00:14:58;;;;;;;4.15;3.55;;;;;;;7.21;61.37;99031.06;4970489;28;104190;-61
2022/04/18 00:17:27;;;;;;;3.80;3.47;;;;;;;7.50;60.71;99020.66;4986310;28;102860;-61
2022/04/18 00:19:55;;;;;;;3.40;3.10;;;;;;;7.75;59.34;99016.69;4988839;28;102739;-60
2022/04/18 00:22:24;;;;;;;4.93;3.90;;;;;;;7.29;60.45;99024.47;4983370;28;103355;-60
2022/04/18 00:24:52;;;;;;;5.10;4.15;;;;;;;6.71;62.22;99036.34;4989067;28;103214;-60
2022/04/18 00:27:20;;;;;;;3.88;3.35;;;;;;;6.22;62.74;99028.31;4989694;28;102628;-60
2022/04/18 00:29:49;;;;;;;4.50;3.27;;;;;;;6.62;61.99;99028.94;4987364;28;104056;-61
2022/04/18 00:32:17;;;;;;;3.80;2.90;;;;;;;6.90;60.62;99026.56;4985660;28;103879;-61
2022/04/18 00:34:47;;;;;;;4.40;3.20;;;;;;;6.51;61.42;99023.38;4985997;28;103192;-61
2022/04/18 00:37:18;;;;;;;3.55;3.15;;;;;;;6.80;60.81;99027.97;4985245;28;102775;-61
2022/04/18 00:39:46;;;;;;;4.57;3.53;;;;;;;6.83;60.65;99025.19;4982351;28;103549;-61
2022/04/18 00:42:14;;;;;;;2.97;2.63;;;;;;;7.47;58.42;99015.56;4987364;28;104371;-60
2022/04/18 00:44:43;;;;;;;3.35;2.95;;;;;;;7.77;57.32;99009.56;4990389;28;104299;-60
2022/04/18 00:47:11;;;;;;;2.80;2.60;;;;;;;7.86;57.11;99009.03;4990062;28;103135;-61
2022/04/18 00:49:39;;;;;;;2.83;2.55;;;;;;;8.03;57.09;99003.63;4998864;28;103223;-60
2022/04/18 00:52:10;;;;;;;3.83;3.47;;;;;;;7.49;58.97;99010.22;4977151;28;104143;-61
2022/04/18 00:54:38;;;;;;;3.50;3.20;;;;;;;7.47;59.77;99010.31;4977186;28;104187;-68
2022/04/18 00:57:11;;;;;;;3.00;2.78;;;;;;;7.87;57.93;99003.69;4977581;28;102698;-61
2022/04/18 00:59:39;;;;;;;4.57;3.80;;;;;;;7.44;59.38;99001.72;4974148;28;104401;-61
2022/04/18 01:02:13;;;;;;;4.93;4.40;;;;;;;7.11;61.05;98998.28;4971593;28;104138;-68
2022/04/18 01:04:42;;;;;;;4.00;3.60;;;;;;;7.33;60.82;99006.72;4985073;28;104219;-68
2022/04/18 01:07:12;;;;;;;3.70;3.40;;;;;;;6.86;60.38;99010.13;4974464;28;103014;-68
2022/04/18 01:09:43;;;;;;;3.73;3.30;;;;;;;6.20;62.86;99009.16;4971483;28;104015;-68
2022/04/18 01:12:11;;;;;;;4.03;3.63;;;;;;;6.07;64.27;99002.81;4969750;28;104116;-68
2022/04/18 01:14:57;;;;;;;3.87;3.40;;;;;;;6.36;62.53;99004.00;4986498;28;103191;-68
2022/04/18 01:17:44;;;;;;;2.88;2.40;;;;;;;7.16;60.13;99005.00;4988167;28;102630;-68
2022/04/18 01:20:34;;;;;;;4.88;4.07;;;;;;;7.25;59.96;98996.63;4992813;28;103602;-68
2022/04/18 01:23:22;;;;;;;5.03;4.15;;;;;;;7.29;60.57;98997.31;4986762;28;103310;-60
2022/04/18 01:29:01;;;;;;;4.90;4.40;;;;;;;6.80;62.78;98991.19;4976527;28;102646;-60
2022/04/18 01:31:33;;;;;;;6.13;4.20;;;;;;;6.58;63.01;98993.25;4975171;28;103320;-68
2022/04/18 01:34:03;;;;;;;3.60;3.30;;;;;;;7.00;62.42;98986.59;4968502;28;103359;-68
2022/04/18 01:36:31;;;;;;;4.72;4.22;;;;;;;6.94;61.82;98981.66;4965052;28;103229;-61
2022/04/18 01:39:04;;;;;;;4.50;4.10;;;;;;;6.63;63.02;98985.97;4974624;28;102749;-68
2022/04/18 01:41:33;;;;;;;4.20;3.78;;;;;;;6.77;63.01;98983.47;4986521;28;102630;-68
2022/04/18 01:44:04;;;;;;;3.70;3.40;;;;;;;7.04;61.10;98976.78;4976902;28;104221;-61
2022/04/18 01:46:32;;;;;;;4.93;4.10;;;;;;;6.18;64.97;98979.53;4972463;28;103048;-61
2022/04/18 01:49:00;;;;;;;4.28;3.88;;;;;;;5.87;66.15;98979.34;4987623;28;103816;-61
2022/04/18 01:51:28;;;;;;;4.05;3.60;;;;;;;5.85;66.41;98970.69;4977361;28;103095;-60
2022/04/18 01:54:00;;;;;;;3.80;3.50;;;;;;;5.46;67.64;98975.22;4975623;28;105141;-68
2022/04/18 01:56:31;;;;;;;3.80;3.40;;;;;;;5.93;66.13;98981.66;4992947;28;103666;-68
2022/04/18 01:59:00;;;;;;;4.13;3.70;;;;;;;5.61;67.15;98982.34;4997157;28;103827;-68
2022/04/18 02:01:28;;;;;;;4.32;3.70;;;;;;;5.41;67.58;98975.44;4969394;28;103583;-68
2022/04/18 02:03:57;;;;;;;4.43;3.80;;;;;;;5.33;67.16;98976.72;4994602;28;106293;-68
2022/04/18 02:06:24;;;;;;;4.15;3.75;;;;;;;4.99;69.01;98973.03;4977620;28;103215;-61
2022/04/18 02:08:53;;;;;;;3.83;3.40;;;;;;;5.61;67.06;98975.34;4969968;28;102696;-60
2022/04/18 02:11:24;;;;;;;3.15;2.85;;;;;;;6.31;63.96;98974.50;4972788;28;102908;-61
2022/04/18 02:13:55;;;;;;;3.72;3.42;;;;;;;6.66;62.51;98968.28;4972987;28;104194;-61
2022/04/18 02:16:23;;;;;;;3.45;3.15;;;;;;;6.81;61.78;98966.66;4998852;28;103243;-60
2022/04/18 02:18:53;;;;;;;3.30;3.00;;;;;;;6.89;61.25;98953.94;4981200;28;103372;-61
2022/04/18 02:21:23;;;;;;;4.03;3.67;;;;;;;6.98;60.76;98956.09;4979872;28;102724;-68
2022/04/18 02:23:51;;;;;;;6.03;5.47;;;;;;;6.86;60.92;98957.59;4979421;28;104434;-68
2022/04/18 02:26:19;;;;;;;6.60;5.93;;;;;;;6.38;64.30;98958.38;4969917;28;104241;-69
2022/04/18 02:28:57;;;;;;;6.80;6.10;;;;;;;6.52;63.29;98962.06;4987549;28;102660;-61
2022/04/18 02:31:25;;;;;;;6.05;5.55;;;;;;;6.34;63.34;98959.44;4975596;28;103164;-69
2022/04/18 02:33:55;;;;;;;5.85;5.25;;;;;;;6.47;63.02;98953.56;4970131;28;104192;-61
2022/04/18 02:36:26;;;;;;;5.55;4.97;;;;;;;6.40;62.73;98948.63;4970587;28;105700;-68
2022/04/18 02:38:54;;;;;;;4.82;4.18;;;;;;;5.92;65.41;98947.66;4973370;28;103172;-69
2022/04/18 02:41:26;;;;;;;5.30;4.80;;;;;;;5.83;65.59;98946.31;4977883;28;102702;-69
2022/04/18 02:43:55;;;;;;;4.53;4.07;;;;;;;5.88;65.08;98946.94;4976953;28;104195;-69
2022/04/18 02:46:24;;;;;;;5.03;4.22;;;;;;;5.77;65.29;98946.59;4977754;28;104409;-61
2022/04/18 02:48:57;;;;;;;5.47;3.65;;;;;;;5.60;66.09;98943.94;4976119;28;102719;-69
2022/04/18 02:51:27;;;;;;;3.90;3.43;;;;;;;5.66;66.51;98941.88;4980357;28;102836;-69
2022/04/18 02:54:01;;;;;;;3.90;3.50;;;;;;;5.89;65.03;98945.19;4981579;28;105152;-69
2022/04/18 02:56:32;;;;;;;3.67;3.23;;;;;;;5.78;65.45;98940.44;4975235;28;104215;-69
2022/04/18 02:59:00;;;;;;;3.58;3.28;;;;;;;5.77;65.39;98938.75;4980433;28;102962;-69
2022/04/18 03:01:29;;;;;;;4.63;3.63;;;;;;;5.96;64.43;98942.16;4979929;28;103617;-69
2022/04/18 03:03:59;;;;;;;3.63;3.30;;;;;;;6.10;63.59;98939.72;4998758;28;103560;-69
2022/04/18 03:06:27;;;;;;;4.20;3.50;;;;;;;6.11;63.83;98946.66;4972516;28;103257;-69
2022/04/18 03:08:55;;;;;;;3.60;3.22;;;;;;;6.17;63.96;98938.50;4991646;28;102659;-69
2022/04/18 03:11:23;;;;;;;5.15;4.68;;;;;;;5.70;65.00;98934.69;4991303;28;103905;-69
2022/04/18 03:13:51;;;;;;;5.38;4.88;;;;;;;5.64;66.04;98929.78;4964718;28;104144;-69
2022/04/18 03:16:35;;;;;;;5.40;4.90;;;;;;;5.74;65.49;98928.41;4981425;28;103355;-61
2022/04/18 03:19:03;;;;;;;4.38;3.97;;;;;;;5.89;65.01;98924.22;4974165;28;102776;-61
2022/04/18 03:21:34;;;;;;;5.35;4.90;;;;;;;5.39;66.46;98918.78;4980120;28;102876;-69
2022/04/18 03:24:07;;;;;;;4.78;4.28;;;;;;;5.09;67.56;98916.69;4978922;28;104247;-69
2022/04/18 03:26:45;;;;;;;4.78;4.35;;;;;;;5.01;68.36;98915.34;4970391;28;104406;-61
2022/04/18 03:29:18;;;;;;;4.95;4.45;;;;;;;4.91;68.45;98917.53;4973841;28;102755;-69
2022/04/18 03:31:49;;;;;;;4.50;4.10;;;;;;;4.99;68.90;98925.91;4988964;28;102764;-69
2022/04/18 03:34:25;;;;;;;3.90;3.60;;;;;;;5.08;69.00;98920.22;4979426;28;105098;-61
2022/04/18 03:39:53;;;;;;;4.07;3.67;;;;;;;5.03;68.64;98923.97;4991622;28;102515;-69
2022/04/18 03:42:31;;;;;;;3.80;3.50;;;;;;;5.32;67.72;98917.38;4972911;28;103607;-62
2022/04/18 03:45:06;;;;;;;3.10;2.80;;;;;;;5.66;65.68;98915.69;4979886;28;105897;-61
2022/04/18 03:47:35;;;;;;;3.58;3.28;;;;;;;5.84;64.92;98921.75;4995578;28;104185;-62
2022/04/18 03:50:07;;;;;;;3.75;3.28;;;;;;;5.75;65.52;98912.56;4972630;28;102686;-69
2022/04/18 03:52:39;;;;;;;5.03;4.63;;;;;;;5.48;66.37;98907.84;4972445;28;102664;-69
2022/04/18 03:55:25;;;;;;;6.10;5.47;;;;;;;4.87;69.07;98909.88;4978887;28;105094;-69
2022/04/18 03:57:53;;;;;;;6.00;5.50;;;;;;;4.27;71.76;98911.72;4968831;28;104137;-69
2022/04/18 04:00:21;;;;;;;5.60;5.10;;;;;;;3.85;73.08;98917.00;4978311;28;102636;-61
2022/04/18 04:02:53;;;;;;;5.15;4.68;;;;;;;4.02;72.28;98914.53;4981934;28;102720;-61
2022/04/18 04:05:39;;;;;;;4.32;3.92;;;;;;;4.34;71.98;98914.91;4995972;28;103508;-61
2022/04/18 04:08:08;;;;;;;4.63;4.20;;;;;;;4.22;71.54;98907.59;4978383;28;104211;-61
2022/04/18 04:10:36;;;;;;;3.53;3.22;;;;;;;5.04;68.96;98907.34;4973234;28;102553;-69
2022/04/18 04:13:07;;;;;;;5.38;4.40;;;;;;;4.78;69.47;98915.53;4977246;28;103781;-69
2022/04/18 04:15:56;;;;;;;3.53;3.22;;;;;;;5.28;67.47;98914.03;4979554;28;103239;-69
2022/04/18 04:18:28;;;;;;;4.10;3.80;;;;;;;5.14;68.41;98914.69;4975776;28;104405;-62
2022/04/18 04:21:03;;;;;;;4.93;4.43;;;;;;;3.83;73.03;98918.84;4980519;28;102960;-69
2022/04/18 04:23:34;;;;;;;4.65;4.28;;;;;;;3.73;73.61;98914.06;4973137;28;103130;-69
2022/04/18 04:26:26;;;;;;;4.37;4.03;;;;;;;3.86;73.06;98905.66;4990368;28;103229;-62
2022/04/18 04:28:55;;;;;;;3.97;3.57;;;;;;;4.27;72.85;98908.25;4994365;28;104932;-62
2022/04/18 04:31:33;;;;;;;3.73;3.43;;;;;;;4.68;70.70;98900.28;4981043;28;102630;-70
2022/04/18 04:34:03;;;;;;;3.10;2.90;;;;;;;5.18;67.78;98905.78;4971818;28;104260;-62
2022/04/18 04:36:38;;;;;;;4.78;4.38;;;;;;;4.99;68.88;98902.34;4979276;28;104289;-62
2022/04/18 04:39:08;;;;;;;4.78;4.30;;;;;;;4.18;71.22;98903.44;4995228;28;105245;-63
2022/04/18 04:41:41;;;;;;;4.65;4.15;;;;;;;4.10;72.35;98896.75;4979564;28;103031;-70
2022/04/18 04:44:10;;;;;;;4.25;3.70;;;;;;;4.71;70.23;98898.44;4971316;28;103646;-70
2022/04/18 04:46:51;;;;;;;3.78;3.47;;;;;;;5.12;68.48;98885.13;4970113;28;103886;-70
2022/04/18 04:49:22;;;;;;;4.20;3.80;;;;;;;4.36;72.05;98887.78;4970870;28;105527;-70
2022/04/18 04:52:12;;;;;;;3.23;2.77;;;;;;;4.95;69.63;98889.44;4972907;28;102671;-70
2022/04/18 04:54:40;;;;;;;4.05;3.65;;;;;;;5.13;67.87;98891.22;4980380;28;102950;-63
2022/04/18 04:57:11;;;;;;;4.32;3.60;;;;;;;5.16;68.08;98891.91;4976643;28;103733;-69
2022/04/18 05:00:12;;;;;;;3.90;2.90;;;;;;;5.35;68.39;98891.03;4968492;28;102823;-69
2022/04/18 05:03:09;;;;;;;4.07;3.70;;;;;;;5.04;69.98;98892.50;4916133;28;102927;-69
2022/04/18 05:05:40;;;;;;;4.38;3.97;;;;;;;4.93;71.04;98891.28;4968239;28;103016;-63
2022/04/18 05:08:22;;;;;;;4.28;3.88;;;;;;;4.88;71.84;98888.88;4967636;28;105120;-63
2022/04/18 05:10:54;;;;;;;4.88;4.07;;;;;;;4.35;74.06;98899.13;4969185;28;104730;-70
2022/04/18 05:13:31;;;;;;;4.30;3.90;;;;;;;5.00;71.79;98896.16;4962140;28;102979;-70
2022/04/18 05:16:01;;;;;;;2.88;2.67;;;;;;;5.57;68.67;98894.28;4964255;28;104307;-70
2022/04/18 05:18:41;;;;;;;3.22;2.92;;;;;;;5.91;67.03;98902.22;4966707;28;104112;-70
2022/04/18 05:21:12;;;;;;;4.13;3.80;;;;;;;6.01;66.85;98903.44;5002967;28;103436;-70
2022/04/18 05:23:44;;;;;;;5.60;4.03;;;;;;;6.12;66.49;98898.50;4996957;28;103130;-68
2022/04/18 05:26:13;;;;;;;3.57;3.27;;;;;;;6.22;66.21;98897.13;5003028;28;102720;-70
2022/04/18 05:28:42;;;;;;;3.88;3.58;;;;;;;6.38;65.48;98897.16;4995325;28;105520;-70
2022/04/18 05:31:12;;;;;;;5.05;4.55;;;;;;;6.03;67.22;98911.25;5001325;28;103195;-69
2022/04/18 05:33:42;;;;;;;4.47;4.07;;;;;;;5.74;68.35;98915.28;4981761;28;102738;-70
2022/04/18 05:36:30;;;;;;;4.60;4.15;;;;;;;5.54;68.73;98910.16;4989544;28;103469;-69
2022/04/18 05:39:00;;;;;;;4.85;4.00;;;;;;;5.28;70.27;98912.28;4986144;28;103753;-70
2022/04/18 05:41:39;;;;;;;4.53;3.90;;;;;;;5.44;70.58;98914.16;4995606;28;103362;-70
2022/04/18 05:44:08;;;;;;;3.90;3.60;;;;;;;5.84;68.07;98911.28;4990646;28;102596;-70
2022/04/18 05:46:52;;;;;;;4.03;3.67;;;;;;;5.54;68.68;98910.16;5004748;28;103755;-63
2022/04/18 05:49:20;;;;;;;4.18;3.83;;;;;;;5.03;70.38;98909.09;4994767;28;104353;-63
2022/04/18 05:51:51;;;;;;;5.60;4.20;;;;;;;5.21;70.66;98910.88;4984376;28;103626;-62
2022/04/18 05:54:19;;;;;;;4.65;4.15;;;;;;;5.50;70.13;98916.50;4991108;28;102746;-62
2022/04/18 05:57:01;;;;;;;4.40;4.00;;;;;;;5.66;69.63;98917.44;5011672;28;103627;-63
2022/04/18 05:59:44;;;;;;;5.10;4.57;;;;;;;5.27;70.67;98917.59;4988020;28;104419;-70
2022/04/18 06:02:18;;;;;;;4.63;4.13;;;;;;;5.04;71.90;98918.66;4989918;28;105515;-63
2022/04/18 06:05:02;;;;;;;3.55;3.05;;;;;;;6.32;68.71;98913.22;4991548;28;103301;-70
2022/04/18 06:07:38;;;;;;;4.20;3.80;;;;;;;6.83;66.89;98907.00;5010884;28;102939;-70
2022/04/18 06:10:26;;;;;;;4.13;3.80;;;;;;;7.06;66.25;98903.97;5003123;28;104067;-63
2022/04/18 06:13:20;;;;;;;4.40;4.00;;;;;;;7.06;66.17;98911.84;4993233;28;103206;-70
2022/04/18 06:15:52;;;;;;;3.65;3.35;;;;;;;7.42;64.77;98899.31;5000325;28;103054;-70
2022/04/18 06:18:23;;;;;;;3.85;3.55;;;;;;;7.71;63.69;98895.03;4986555;28;103700;-62
2022/04/18 06:20:52;;;;;;;3.60;3.30;;;;;;;7.91;62.96;98891.25;4991382;28;105568;-61
2022/04/18 06:23:22;;;;;;;3.95;3.50;;;;;;;8.12;62.05;98889.97;4986851;28;104205;-61
2022/04/18 06:26:05;;;;;;;5.63;4.15;;;;;;;7.28;64.54;98898.38;4990010;28;102865;-61
2022/04/18 06:28:33;;;;;;;5.57;4.43;;;;;;;7.27;63.77;98894.91;4982434;28;104244;-62
2022/04/18 06:31:01;;;;;;;4.50;4.10;;;;;;;7.15;65.34;98890.34;5004782;28;104004;-61
2022/04/18 06:33:37;;;;;;;4.97;4.20;;;;;;;7.54;64.85;98888.09;4994700;28;104259;-68
2022/04/18 06:36:07;;;;;;;4.57;4.10;;;;;;;7.62;64.62;98890.28;4994186;28;102661;-61
2022/04/18 06:38:47;;;;;;;3.83;3.53;;;;;;;7.81;64.84;98887.44;4986113;28;102682;-61
2022/04/18 06:41:25;;;;;;;3.45;3.15;;;;;;;8.48;60.23;98890.41;4986635;28;104155;-61
2022/04/18 06:43:54;;;;;;;3.70;3.40;;;;;;;8.76;58.15;98881.66;4997003;28;104201;-61
2022/04/18 06:46:28;;;;;;;3.70;3.40;;;;;;;8.97;57.87;98874.22;4995543;28;102942;-61
2022/04/18 06:49:03;;;;;;;4.30;3.30;;;;;;;9.14;55.51;98887.19;4995627;28;104403;-61
2022/04/18 06:51:57;;;;;;;4.05;3.15;;;;;;;8.95;55.30;98882.22;5007692;28;103772;-61
2022/04/18 06:54:44;;;;;;;4.17;3.50;;;;;;;8.45;55.10;98887.97;5003217;28;103264;-67
2022/04/18 06:57:14;;;;;;;3.27;2.97;;;;;;;9.18;53.78;98878.97;4996612;28;102700;-68
2022/04/18 06:59:54;;;;;;;4.15;3.75;;;;;;;9.27;55.01;98880.16;4992607;28;103540;-68
2022/04/18 07:02:25;;;;;;;3.63;3.33;;;;;;;9.44;53.34;98882.56;4990588;28;103781;-68
2022/04/18 07:04:54;;;;;;;3.10;2.83;;;;;;;10.04;52.74;98880.34;4999873;28;105380;-68
2022/04/18 07:07:25;;;;;;;4.15;3.60;;;;;;;9.90;53.43;98875.97;4987900;28;102898;-67
2022/04/18 07:09:55;;;;;;;3.45;3.15;;;;;;;9.58;54.04;98879.88;5012401;28;104227;-63
2022/04/18 07:12:23;;;;;;;2.92;2.72;;;;;;;10.42;51.42;98875.09;5005436;28;103248;-65
2022/04/18 07:14:58;;;;;;;3.97;3.57;;;;;;;10.55;50.67;98873.31;4994311;28;104299;-64
2022/04/18 07:17:31;;;;;;;3.47;3.17;;;;;;;10.75;50.73;98866.66;5005544;28;102640;-64
2022/04/18 07:20:05;;;;;;;6.00;3.60;;;;;;;10.33;50.53;98873.13;5002204;28;103750;-64
2022/04/18 07:22:39;;;;;;;3.60;3.30;;;;;;;10.52;50.92;98880.59;5005904;28;103461;-63
2022/04/18 07:25:11;;;;;;;4.18;3.38;;;;;;;10.83;50.54;98870.44;5011067;28;103246;-64
2022/04/18 07:27:44;;;;;;;4.50;3.17;;;;;;;11.25;48.37;98870.97;4984451;28;102644;-65
2022/04/18 07:30:13;;;;;;;3.60;3.30;;;;;;;11.56;47.91;98881.00;5006925;28;102673;-64
2022/04/18 07:32:44;;;;;;;3.40;3.10;;;;;;;11.54;48.22;98874.97;4987391;28;105741;-66
2022/04/18 07:35:17;;;;;;;4.30;3.60;;;;;;;11.63;47.40;98874.28;4988742;28;106201;-65
2022/04/18 07:40:47;;;;;;;4.45;3.30;;;;;;;12.46;45.94;98864.47;5012846;28;103557;-66
2022/04/18 07:43:21;;;;;;;3.50;3.17;;;;;;;12.72;45.46;98869.44;5006534;28;104332;-66
2022/04/18 07:45:50;;;;;;;3.60;3.30;;;;;;;12.64;45.47;98876.28;5003009;28;104197;-66
2022/04/18 07:48:19;;;;;;;3.80;3.45;;;;;;;11.85;47.07;98874.41;4996786;28;102955;-66
2022/04/18 07:53:33;;;;;;;3.90;3.60;;;;;;;13.01;44.54;98868.94;5009526;28;103552;-65
2022/04/18 07:56:03;;;;;;;3.77;3.40;;;;;;;12.80;44.69;98868.81;4990944;28;104194;-65
2022/04/18 07:58:34;;;;;;;3.90;3.10;;;;;;;13.09;43.27;98867.41;4997783;28;103122;-66
2022/04/18 08:01:07;;;;;;;4.30;3.53;;;;;;;13.35;44.69;98863.50;4996827;28;104017;-66
2022/04/18 08:03:35;;;;;;;3.70;3.40;;;;;;;14.26;42.04;98863.03;5003122;28;103331;-65
2022/04/18 08:06:04;;;;;;;3.95;3.42;;;;;;;12.53;43.44;98874.47;5004911;28;103499;-65
2022/04/18 08:08:45;;;;;;;3.70;3.40;;;;;;;13.24;43.23;98876.81;4996468;28;102833;-64
2022/04/18 08:11:17;;;;;;;4.07;3.50;;;;;;;14.61;43.85;98868.84;4996256;28;102740;-64
2022/04/18 08:13:50;;;;;;;4.30;3.53;;;;;;;14.24;42.11;98859.63;4988101;28;103745;-65
2022/04/18 08:16:37;;;;;;;5.43;3.55;;;;;;;13.83;42.79;98871.94;5011218;28;103144;-66
2022/04/18 08:19:39;;;;;;;4.20;3.80;;;;;;;13.75;42.84;98871.69;5006956;28;102697;-66
2022/04/18 08:22:08;;;;;;;4.07;3.67;;;;;;;14.29;42.98;98855.59;5004888;28;104668;-64
2022/04/18 08:24:56;;;;;;;3.95;3.40;;;;;;;14.16;42.92;98856.78;5001280;28;104077;-64
2022/04/18 08:27:45;;;;;;;3.80;3.38;;;;;;;14.29;42.12;98860.94;5008084;28;103879;-64
2022/04/18 08:30:22;;;;;;;4.75;3.50;;;;;;;16.10;42.10;98859.00;4985804;28;102717;-65
2022/04/18 08:33:04;;;;;;;4.40;3.20;;;;;;;16.37;40.14;98859.09;4994806;28;103974;-66
2022/04/18 08:35:35;;;;;;;3.83;3.33;;;;;;;15.90;41.25;98858.16;4992664;28;104175;-66
2022/04/18 08:38:03;;;;;;;4.20;3.67;;;;;;;14.38;41.47;98864.66;4995815;28;103403;-64
2022/04/18 08:40:51;;;;;;;3.95;3.63;;;;;;;16.12;39.38;98851.69;5007634;28;102802;-64
2022/04/18 08:43:26;;;;;;;3.75;3.30;;;;;;;16.78;38.35;98850.75;4997366;28;102927;-64
2022/04/18 08:45:57;;;;;;;4.25;3.63;;;;;;;15.56;39.59;98855.06;4991221;28;104475;-65
2022/04/18 08:54:00;;;;;;;3.70;3.40;;;;;;;16.79;39.09;98854.22;4996137;28;104143;-65
2022/04/18 08:56:29;;;;;;;3.57;3.27;;;;;;;18.12;38.71;98840.19;4995020;28;103753;-66
2022/04/18 08:58:58;;;;;;;3.67;3.30;;;;;;;18.41;36.32;98841.56;5002782;28;103207;-69
2022/04/18 09:01:28;;;;;;;4.00;3.10;;;;;;;16.70;35.78;98842.59;4995420;28;103279;-69
2022/04/18 09:04:11;;;;;;;3.85;2.97;;;;;;;15.89;37.72;98839.63;4983875;28;102700;-69
2022/04/18 09:06:44;;;;;;;3.92;2.88;;;;;;;18.19;38.39;98835.94;5002824;28;104499;-69
2022/04/18 09:09:28;;;;;;;2.97;2.67;;;;;;;17.75;34.88;98845.72;5006816;28;105537;-69
2022/04/18 09:12:20;;;;;;;2.88;2.67;;;;;;;18.38;35.39;98828.53;4979367;28;102971;-69
2022/04/18 09:15:35;;;;;;;3.50;3.00;;;;;;;18.08;35.14;98830.81;5000647;28;102882;-69
2022/04/18 09:18:10;;;;;;;2.80;2.58;;;;;;;18.86;34.73;98817.28;4995415;28;104105;-69
2022/04/18 09:20:51;;;;;;;3.42;2.97;;;;;;;18.84;34.14;98811.28;4993931;28;102939;-69
2022/04/18 09:23:25;;;;;;;3.53;3.10;;;;;;;19.19;33.20;98817.44;4996779;28;102892;-69
2022/04/18 09:25:57;;;;;;;3.45;3.15;;;;;;;17.03;34.59;98816.34;4989737;28;103079;-70
2022/04/18 09:28:27;;;;;;;3.10;2.88;;;;;;;17.75;35.59;98819.00;5013540;28;103507;-69
2022/04/18 09:31:06;;;;;;;3.20;2.90;;;;;;;19.11;33.55;98800.31;4989441;28;105711;-69
2022/04/18 09:33:43;;;;;;;2.92;2.70;;;;;;;19.90;35.19;98813.25;5005957;28;102701;-69
2022/04/18 09:36:13;;;;;;;3.55;3.25;;;;;;;19.88;33.67;98804.53;5002887;27;102678;-69
2022/04/18 09:38:46;;;;;;;3.58;3.17;;;;;;;19.72;33.23;98806.38;4991749;28;105604;-69
2022/04/18 09:41:16;;;;;;;3.72;3.20;;;;;;;19.05;32.99;98797.47;5008630;28;103170;-70
2022/04/18 09:43:46;;;;;;;3.10;2.80;;;;;;;19.29;32.38;98804.75;5006142;28;102743;-70
2022/04/18 09:46:20;;;;;;;4.03;3.00;;;;;;;19.13;32.33;98793.97;4973852;28;104722;-70
2022/04/18 09:49:03;;;;;;;2.92;2.72;;;;;;;19.99;34.37;98790.81;4965433;28;108975;-69
2022/04/18 09:51:38;;;;;;;3.00;2.63;;;;;;;20.31;32.87;98795.34;4979397;28;103478;-70
2022/04/18 09:54:13;;;;;;;2.83;2.50;;;;;;;19.63;32.19;98794.81;4985198;28;103149;-69
2022/04/18 09:56:49;;;;;;;2.97;2.67;;;;;;;19.89;31.47;98791.97;4984134;28;104098;-70
2022/04/18 09:59:19;;;;;;;3.45;2.80;;;;;;;19.18;30.39;98786.28;4990539;28;103269;-69
2022/04/18 10:01:51;;;;;;;3.58;2.97;;;;;;;19.71;31.68;98786.78;4989555;28;103216;-69
2022/04/18 10:04:22;;;;;;;3.65;3.22;;;;;;;20.22;33.36;98783.75;4985890;28;102692;-69
2022/04/18 10:06:51;;;;;;;3.60;3.23;;;;;;;19.88;32.57;98785.78;4994076;28;102962;-69
2022/04/18 10:09:20;;;;;;;3.10;2.83;;;;;;;17.85;34.10;98788.50;4984916;28;103695;-68
2022/04/18 10:11:48;;;;;;;4.50;2.88;;;;;;;18.52;34.78;98781.69;4972574;28;105221;-69
2022/04/18 10:14:16;;;;;;;4.20;3.17;;;;;;;16.99;35.81;98783.78;4977041;28;102678;-67
2022/04/18 10:16:45;;;;;;;3.83;3.13;;;;;;;17.52;35.26;98781.16;4990222;28;104511;-67
2022/04/18 10:19:28;;;;;;;3.30;3.00;;;;;;;19.03;33.46;98770.84;4992137;28;103094;-67
2022/04/18 10:22:08;;;;;;;3.72;3.03;;;;;;;19.04;32.55;98771.69;4993115;28;103196;-67
2022/04/18 10:24:57;;;;;;;3.40;2.88;;;;;;;18.79;33.41;98765.41;4992017;28;102561;-67
2022/04/18 10:28:01;;;;;;;2.80;2.60;;;;;;;18.72;33.83;98767.06;4988654;28;103047;-68
2022/04/18 10:30:30;;;;;;;3.35;2.88;;;;;;;19.81;32.28;98760.66;4981645;28;103679;-68
2022/04/18 10:32:59;;;;;;;4.03;2.90;;;;;;;18.84;32.71;98752.38;4990053;28;103074;-67
2022/04/18 10:35:29;;;;;;;3.40;2.87;;;;;;;18.60;36.79;98756.81;4980048;28;103406;-68
2022/04/18 10:37:58;;;;;;;2.92;2.72;;;;;;;18.61;33.22;98753.94;5012678;28;103590;-68
2022/04/18 10:40:27;;;;;;;4.63;3.23;;;;;;;19.20;32.97;98753.00;5008470;28;104500;-68
2022/04/18 10:42:55;;;;;;;3.38;3.08;;;;;;;19.74;33.13;98748.91;5006822;28;103214;-69
2022/04/18 10:45:24;;;;;;;3.30;3.00;;;;;;;19.83;33.01;98745.25;5012621;28;102971;-69
2022/04/18 10:48:09;;;;;;;4.05;3.30;;;;;;;18.93;31.44;98743.38;5007893;28;104121;-69
2022/04/18 10:50:43;;;;;;;3.30;3.00;;;;;;;19.11;32.52;98746.78;5008844;28;103277;-70
2022/04/18 10:53:18;;;;;;;3.65;3.25;;;;;;;18.01;34.34;98746.88;5010857;28;103000;-69
2022/04/18 10:56:09;;;;;;;3.80;3.30;;;;;;;19.97;33.31;98749.91;4992880;28;102614;-69
2022/04/18 10:58:37;;;;;;;3.60;3.00;;;;;;;20.14;31.98;98742.69;4990803;28;104131;-69
2022/04/18 11:01:08;;;;;;;3.95;3.40;;;;;;;20.40;31.48;98739.81;5008984;28;104110;-68
2022/04/18 11:03:55;;;;;;;3.45;3.03;;;;;;;20.72;31.48;98734.34;5014370;28;103208;-68
2022/04/18 11:06:50;;;;;;;3.45;3.15;;;;;;;21.18;30.86;98729.94;5007886;28;102575;-68
2022/04/18 11:09:21;;;;;;;3.23;2.93;;;;;;;19.35;30.79;98723.72;4994896;28;104051;-69
2022/04/18 11:12:16;;;;;;;3.53;3.10;;;;;;;20.18;31.28;98720.72;5006157;28;103769;-70
2022/04/18 11:14:52;;;;;;;3.97;3.05;;;;;;;20.21;31.25;98714.16;4987309;28;103190;-69
2022/04/18 11:17:29;;;;;;;3.30;2.85;;;;;;;19.75;34.41;98713.06;5010951;28;102630;-69
2022/04/18 11:20:18;;;;;;;3.88;3.08;;;;;;;18.48;33.15;98713.44;5014441;28;104126;-70
2022/04/18 11:23:19;;;;;;;3.78;3.47;;;;;;;19.62;31.91;98710.88;5010264;28;104169;-69
2022/04/18 11:25:55;;;;;;;3.33;2.73;;;;;;;20.49;31.30;98706.59;5010077;28;103164;-69
2022/04/18 11:28:26;;;;;;;4.17;2.80;;;;;;;21.42;29.88;98710.16;5009004;28;103166;-69
2022/04/18 11:30:54;;;;;;;3.90;3.50;;;;;;;21.51;29.39;98703.69;5011975;28;104030;-67
2022/04/18 11:33:22;;;;;;;3.55;3.22;;;;;;;20.95;29.64;98703.03;4996325;28;103834;-67
2022/04/18 11:35:50;;;;;;;4.07;3.30;;;;;;;17.26;33.04;98716.19;4993000;28;102980;-69
2022/04/18 11:38:19;;;;;;;11.55;3.53;;;;;;;18.01;33.33;98706.78;4995774;28;102919;-63
2022/04/18 11:40:50;;;;;;;3.05;2.85;;;;;;;20.83;31.02;98693.69;5008692;28;103844;-68
2022/04/18 11:43:18;;;;;;;4.45;3.25;;;;;;;21.44;30.73;98679.41;5006041;28;103314;-69
2022/04/18 11:45:46;;;;;;;3.60;3.10;;;;;;;21.52;30.62;98689.25;5008945;28;103173;-69
2022/04/18 11:48:14;;;;;;;3.35;3.03;;;;;;;21.92;29.52;98678.19;5006985;28;103013;-69
2022/04/18 11:50:43;;;;;;;3.63;3.33;;;;;;;21.65;28.97;98676.88;4990271;28;104322;-69
2022/04/18 11:53:16;;;;;;;3.30;3.00;;;;;;;21.77;29.32;98677.28;4996796;28;104101;-68
2022/04/18 11:55:48;;;;;;;4.00;3.60;;;;;;;21.81;29.52;98674.03;4997112;28;103637;-69
2022/04/18 11:58:20;;;;;;;3.45;3.15;;;;;;;21.60;30.05;98671.19;4977733;28;102671;-69
2022/04/18 12:09:09;;;;;;;3.08;2.58;;;;;;;18.30;31.76;98669.88;5001346;28;102738;-67
2022/04/18 12:11:38;;;;;;;4.07;2.50;;;;;;;20.79;30.71;98650.25;4999875;28;103885;-68
2022/04/18 12:14:07;;;;;;;3.70;2.80;;;;;;;18.84;31.34;98658.72;4998645;27;104155;-67
2022/04/18 12:16:36;;;;;;;2.78;2.58;;;;;;;19.33;32.52;98648.06;4995877;28;103183;-67
2022/04/18 12:19:06;;;;;;;3.28;2.78;;;;;;;18.47;31.25;98652.88;4974567;28;103318;-67
2022/04/18 12:21:34;;;;;;;4.22;2.95;;;;;;;17.62;32.70;98651.09;4993046;28;102892;-67
2022/04/18 12:24:02;;;;;;;3.47;2.80;;;;;;;18.12;32.91;98639.69;4993369;28;104094;-67